sensor_id;sensor_type;location;lat;lon;timestamp;P1;durP1;ratioP1;P2;durP2;ratioP2
14738;SDS011;7461;52.440;13.540;2023-03-05T00:00:08;19.45;;;6.72;;
14738;SDS011;7461;52.440;13.540;2023-03-05T00:02:35;13.57;;;6.10;;
14738;SDS011;7461;52.440;13.540;2023-03-05T00:05:03;15.52;;;5.57;;
14738;SDS011;7461;52.440;13.540;2023-03-05T00:07:30;14.00;;;5.63;;
14738;SDS011;7461;52.440;13.540;2023-03-05T00:09:59;13.57;;;6.32;;
14738;SDS011;7461;52.440;13.540;2023-03-05T00:12:26;9.40;;;5.07;;
14738;SDS011;7461;52.440;13.540;2023-03-05T00:14:53;11.25;;;5.22;;
14738;SDS011;7461;52.440;13.540;2023-03-05T00:17:21;13.00;;;5.53;;
14738;SDS011;7461;52.440;13.540;2023-03-05T00:19:48;9.05;;;5.47;;
14738;SDS011;7461;52.440;13.540;2023-03-05T00:22:15;9.52;;;4.38;;
14738;SDS011;7461;52.440;13.540;2023-03-05T00:24:43;9.43;;;4.70;;
14738;SDS011;7461;52.440;13.540;2023-03-05T00:27:11;14.63;;;6.95;;
14738;SDS011;7461;52.440;13.540;2023-03-05T00:29:39;13.45;;;5.20;;
14738;SDS011;7461;52.440;13.540;2023-03-05T00:32:06;10.60;;;4.15;;
14738;SDS011;7461;52.440;13.540;2023-03-05T00:34:33;14.80;;;5.15;;
14738;SDS011;7461;52.440;13.540;2023-03-05T00:37:01;6.10;;;4.50;;
14738;SDS011;7461;52.440;13.540;2023-03-05T00:39:28;11.25;;;4.47;;
14738;SDS011;7461;52.440;13.540;2023-03-05T00:41:56;11.95;;;4.85;;
14738;SDS011;7461;52.440;13.540;2023-03-05T00:44:24;10.95;;;4.35;;
14738;SDS011;7461;52.440;13.540;2023-03-05T00:46:51;11.43;;;4.32;;
14738;SDS011;7461;52.440;13.540;2023-03-05T00:49:19;10.93;;;5.32;;
14738;SDS011;7461;52.440;13.540;2023-03-05T00:51:46;7.93;;;3.22;;
14738;SDS011;7461;52.440;13.540;2023-03-05T00:54:13;9.18;;;4.47;;
14738;SDS011;7461;52.440;13.540;2023-03-05T00:56:41;11.70;;;3.97;;
14738;SDS011;7461;52.440;13.540;2023-03-05T00:59:08;7.32;;;3.38;;
14738;SDS011;7461;52.440;13.540;2023-03-05T01:01:37;11.73;;;3.65;;
14738;SDS011;7461;52.440;13.540;2023-03-05T01:04:04;12.38;;;4.03;;
14738;SDS011;7461;52.440;13.540;2023-03-05T01:06:32;5.18;;;2.92;;
14738;SDS011;7461;52.440;13.540;2023-03-05T01:08:59;10.43;;;4.28;;
14738;SDS011;7461;52.440;13.540;2023-03-05T01:11:26;13.38;;;4.22;;
14738;SDS011;7461;52.440;13.540;2023-03-05T01:13:54;14.70;;;4.43;;
14738;SDS011;7461;52.440;13.540;2023-03-05T01:16:21;9.10;;;4.50;;
14738;SDS011;7461;52.440;13.540;2023-03-05T01:18:50;16.67;;;5.70;;
14738;SDS011;7461;52.440;13.540;2023-03-05T01:21:17;7.10;;;3.63;;
14738;SDS011;7461;52.440;13.540;2023-03-05T01:23:51;12.65;;;4.38;;
14738;SDS011;7461;52.440;13.540;2023-03-05T01:26:19;19.08;;;4.47;;
14738;SDS011;7461;52.440;13.540;2023-03-05T01:28:46;13.85;;;5.30;;
14738;SDS011;7461;52.440;13.540;2023-03-05T01:31:13;9.85;;;3.20;;
14738;SDS011;7461;52.440;13.540;2023-03-05T01:33:41;7.70;;;3.47;;
14738;SDS011;7461;52.440;13.540;2023-03-05T01:36:10;7.00;;;4.43;;
14738;SDS011;7461;52.440;13.540;2023-03-05T01:38:39;11.85;;;5.38;;
14738;SDS011;7461;52.440;13.540;2023-03-05T01:41:06;13.95;;;3.70;;
14738;SDS011;7461;52.440;13.540;2023-03-05T01:43:34;9.38;;;3.45;;
14738;SDS011;7461;52.440;13.540;2023-03-05T01:49:04;10.38;;;3.47;;
14738;SDS011;7461;52.440;13.540;2023-03-05T01:51:34;4.40;;;2.75;;
14738;SDS011;7461;52.440;13.540;2023-03-05T01:54:02;8.98;;;3.75;;
14738;SDS011;7461;52.440;13.540;2023-03-05T01:56:31;6.78;;;2.47;;
14738;SDS011;7461;52.440;13.540;2023-03-05T01:58:59;7.15;;;3.13;;
14738;SDS011;7461;52.440;13.540;2023-03-05T02:01:29;7.85;;;3.22;;
14738;SDS011;7461;52.440;13.540;2023-03-05T02:03:57;10.93;;;3.90;;
14738;SDS011;7461;52.440;13.540;2023-03-05T02:06:24;9.55;;;3.25;;
14738;SDS011;7461;52.440;13.540;2023-03-05T02:08:53;6.57;;;2.28;;
14738;SDS011;7461;52.440;13.540;2023-03-05T02:11:20;10.63;;;2.95;;
14738;SDS011;7461;52.440;13.540;2023-03-05T02:13:48;5.85;;;2.78;;
14738;SDS011;7461;52.440;13.540;2023-03-05T02:16:15;6.10;;;2.53;;
14738;SDS011;7461;52.440;13.540;2023-03-05T02:18:42;5.38;;;2.45;;
14738;SDS011;7461;52.440;13.540;2023-03-05T02:21:11;4.95;;;2.35;;
14738;SDS011;7461;52.440;13.540;2023-03-05T02:23:38;5.35;;;2.72;;
14738;SDS011;7461;52.440;13.540;2023-03-05T02:26:07;8.45;;;3.15;;
14738;SDS011;7461;52.440;13.540;2023-03-05T02:28:36;4.20;;;1.77;;
14738;SDS011;7461;52.440;13.540;2023-03-05T02:31:07;3.13;;;1.80;;
14738;SDS011;7461;52.440;13.540;2023-03-05T02:33:35;12.27;;;3.25;;
14738;SDS011;7461;52.440;13.540;2023-03-05T02:36:02;3.75;;;1.92;;
14738;SDS011;7461;52.440;13.540;2023-03-05T02:38:31;3.75;;;2.10;;
14738;SDS011;7461;52.440;13.540;2023-03-05T02:40:58;10.82;;;2.72;;
14738;SDS011;7461;52.440;13.540;2023-03-05T02:43:25;4.95;;;1.75;;
14738;SDS011;7461;52.440;13.540;2023-03-05T02:45:53;3.92;;;1.90;;
14738;SDS011;7461;52.440;13.540;2023-03-05T02:48:20;9.98;;;2.85;;
14738;SDS011;7461;52.440;13.540;2023-03-05T02:50:47;2.72;;;1.48;;
14738;SDS011;7461;52.440;13.540;2023-03-05T02:53:15;10.32;;;3.25;;
14738;SDS011;7461;52.440;13.540;2023-03-05T02:55:46;6.22;;;2.47;;
14738;SDS011;7461;52.440;13.540;2023-03-05T02:58:13;5.95;;;2.17;;
14738;SDS011;7461;52.440;13.540;2023-03-05T03:00:40;6.88;;;2.00;;
14738;SDS011;7461;52.440;13.540;2023-03-05T03:03:08;7.30;;;2.08;;
14738;SDS011;7461;52.440;13.540;2023-03-05T03:05:35;2.55;;;1.90;;
14738;SDS011;7461;52.440;13.540;2023-03-05T03:08:02;4.20;;;2.28;;
14738;SDS011;7461;52.440;13.540;2023-03-05T03:10:29;4.72;;;2.30;;
14738;SDS011;7461;52.440;13.540;2023-03-05T03:12:58;3.17;;;2.13;;
14738;SDS011;7461;52.440;13.540;2023-03-05T03:15:25;3.65;;;2.92;;
14738;SDS011;7461;52.440;13.540;2023-03-05T03:17:53;5.57;;;2.58;;
14738;SDS011;7461;52.440;13.540;2023-03-05T03:20:20;9.27;;;3.17;;
14738;SDS011;7461;52.440;13.540;2023-03-05T03:22:48;4.07;;;1.88;;
14738;SDS011;7461;52.440;13.540;2023-03-05T03:25:15;3.25;;;2.45;;
14738;SDS011;7461;52.440;13.540;2023-03-05T03:27:43;6.90;;;2.90;;
14738;SDS011;7461;52.440;13.540;2023-03-05T03:30:12;5.25;;;2.03;;
14738;SDS011;7461;52.440;13.540;2023-03-05T03:32:40;7.25;;;2.75;;
14738;SDS011;7461;52.440;13.540;2023-03-05T03:35:07;3.55;;;2.17;;
14738;SDS011;7461;52.440;13.540;2023-03-05T03:37:35;9.27;;;3.28;;
14738;SDS011;7461;52.440;13.540;2023-03-05T03:40:02;8.63;;;3.10;;
14738;SDS011;7461;52.440;13.540;2023-03-05T03:42:30;5.72;;;2.55;;
14738;SDS011;7461;52.440;13.540;2023-03-05T03:44:57;4.22;;;1.92;;
14738;SDS011;7461;52.440;13.540;2023-03-05T03:47:27;2.97;;;2.33;;
14738;SDS011;7461;52.440;13.540;2023-03-05T03:49:54;8.85;;;3.30;;
14738;SDS011;7461;52.440;13.540;2023-03-05T03:52:22;5.53;;;2.25;;
14738;SDS011;7461;52.440;13.540;2023-03-05T03:54:50;6.90;;;2.17;;
14738;SDS011;7461;52.440;13.540;2023-03-05T03:57:19;5.43;;;2.17;;
14738;SDS011;7461;52.440;13.540;2023-03-05T03:59:47;4.55;;;2.00;;
14738;SDS011;7461;52.440;13.540;2023-03-05T04:02:15;5.55;;;2.95;;
14738;SDS011;7461;52.440;13.540;2023-03-05T04:04:43;5.68;;;2.03;;
14738;SDS011;7461;52.440;13.540;2023-03-05T04:07:10;2.42;;;2.00;;
14738;SDS011;7461;52.440;13.540;2023-03-05T04:09:38;3.50;;;2.22;;
14738;SDS011;7461;52.440;13.540;2023-03-05T04:12:05;3.63;;;2.17;;
14738;SDS011;7461;52.440;13.540;2023-03-05T04:14:33;4.88;;;2.30;;
14738;SDS011;7461;52.440;13.540;2023-03-05T04:17:00;3.45;;;1.95;;
14738;SDS011;7461;52.440;13.540;2023-03-05T04:19:28;2.45;;;2.03;;
14738;SDS011;7461;52.440;13.540;2023-03-05T04:21:57;7.60;;;2.08;;
14738;SDS011;7461;52.440;13.540;2023-03-05T04:24:24;3.95;;;2.38;;
14738;SDS011;7461;52.440;13.540;2023-03-05T04:26:51;5.70;;;2.22;;
14738;SDS011;7461;52.440;13.540;2023-03-05T04:29:18;10.25;;;2.58;;
14738;SDS011;7461;52.440;13.540;2023-03-05T04:31:45;7.20;;;2.05;;
14738;SDS011;7461;52.440;13.540;2023-03-05T04:34:13;5.45;;;1.83;;
14738;SDS011;7461;52.440;13.540;2023-03-05T04:36:40;4.57;;;1.55;;
14738;SDS011;7461;52.440;13.540;2023-03-05T04:39:09;4.60;;;2.03;;
14738;SDS011;7461;52.440;13.540;2023-03-05T04:41:36;4.43;;;1.45;;
14738;SDS011;7461;52.440;13.540;2023-03-05T04:44:03;4.57;;;3.17;;
14738;SDS011;7461;52.440;13.540;2023-03-05T04:46:31;8.25;;;4.25;;
14738;SDS011;7461;52.440;13.540;2023-03-05T04:48:58;3.28;;;2.00;;
14738;SDS011;7461;52.440;13.540;2023-03-05T04:51:25;4.30;;;2.45;;
14738;SDS011;7461;52.440;13.540;2023-03-05T04:53:53;8.05;;;1.80;;
14738;SDS011;7461;52.440;13.540;2023-03-05T04:56:21;5.30;;;3.10;;
14738;SDS011;7461;52.440;13.540;2023-03-05T04:58:48;3.83;;;2.10;;
14738;SDS011;7461;52.440;13.540;2023-03-05T05:01:16;3.38;;;1.45;;
14738;SDS011;7461;52.440;13.540;2023-03-05T05:03:43;4.18;;;1.50;;
14738;SDS011;7461;52.440;13.540;2023-03-05T05:06:11;5.90;;;2.45;;
14738;SDS011;7461;52.440;13.540;2023-03-05T05:08:38;3.40;;;2.85;;
14738;SDS011;7461;52.440;13.540;2023-03-05T05:11:06;3.75;;;2.08;;
14738;SDS011;7461;52.440;13.540;2023-03-05T05:13:34;6.03;;;1.92;;
14738;SDS011;7461;52.440;13.540;2023-03-05T05:16:04;4.13;;;3.67;;
14738;SDS011;7461;52.440;13.540;2023-03-05T05:18:31;7.78;;;2.22;;
14738;SDS011;7461;52.440;13.540;2023-03-05T05:20:59;2.38;;;1.25;;
14738;SDS011;7461;52.440;13.540;2023-03-05T05:23:26;3.67;;;1.70;;
14738;SDS011;7461;52.440;13.540;2023-03-05T05:25:57;4.18;;;2.58;;
14738;SDS011;7461;52.440;13.540;2023-03-05T05:28:24;3.90;;;1.67;;
14738;SDS011;7461;52.440;13.540;2023-03-05T05:30:53;6.25;;;2.35;;
14738;SDS011;7461;52.440;13.540;2023-03-05T05:33:20;4.68;;;2.50;;
14738;SDS011;7461;52.440;13.540;2023-03-05T05:35:47;4.45;;;1.98;;
14738;SDS011;7461;52.440;13.540;2023-03-05T05:38:15;6.57;;;1.75;;
14738;SDS011;7461;52.440;13.540;2023-03-05T05:40:42;4.40;;;1.52;;
14738;SDS011;7461;52.440;13.540;2023-03-05T05:43:09;5.97;;;2.45;;
14738;SDS011;7461;52.440;13.540;2023-03-05T05:45:36;6.38;;;2.15;;
14738;SDS011;7461;52.440;13.540;2023-03-05T05:48:05;4.20;;;1.85;;
14738;SDS011;7461;52.440;13.540;2023-03-05T05:50:32;5.75;;;2.25;;
14738;SDS011;7461;52.440;13.540;2023-03-05T05:53:00;6.32;;;2.22;;
14738;SDS011;7461;52.440;13.540;2023-03-05T05:55:27;6.85;;;2.00;;
14738;SDS011;7461;52.440;13.540;2023-03-05T05:57:54;4.70;;;2.22;;
14738;SDS011;7461;52.440;13.540;2023-03-05T06:00:22;5.18;;;1.98;;
14738;SDS011;7461;52.440;13.540;2023-03-05T06:02:49;6.60;;;2.08;;
14738;SDS011;7461;52.440;13.540;2023-03-05T06:05:18;4.47;;;2.03;;
14738;SDS011;7461;52.440;13.540;2023-03-05T06:07:45;4.63;;;2.28;;
14738;SDS011;7461;52.440;13.540;2023-03-05T06:10:12;4.13;;;2.22;;
14738;SDS011;7461;52.440;13.540;2023-03-05T06:12:39;2.92;;;1.88;;
14738;SDS011;7461;52.440;13.540;2023-03-05T06:15:07;2.10;;;1.88;;
14738;SDS011;7461;52.440;13.540;2023-03-05T06:17:34;8.02;;;2.88;;
14738;SDS011;7461;52.440;13.540;2023-03-05T06:20:02;4.88;;;2.22;;
14738;SDS011;7461;52.440;13.540;2023-03-05T06:22:32;8.02;;;2.83;;
14738;SDS011;7461;52.440;13.540;2023-03-05T06:25:01;4.75;;;2.55;;
14738;SDS011;7461;52.440;13.540;2023-03-05T06:27:28;12.35;;;2.67;;
14738;SDS011;7461;52.440;13.540;2023-03-05T06:29:56;10.18;;;2.92;;
14738;SDS011;7461;52.440;13.540;2023-03-05T06:32:23;4.60;;;3.08;;
14738;SDS011;7461;52.440;13.540;2023-03-05T06:34:50;5.47;;;3.00;;
14738;SDS011;7461;52.440;13.540;2023-03-05T06:37:17;5.35;;;2.40;;
14738;SDS011;7461;52.440;13.540;2023-03-05T06:39:46;4.20;;;3.22;;
14738;SDS011;7461;52.440;13.540;2023-03-05T06:42:13;10.38;;;4.20;;
14738;SDS011;7461;52.440;13.540;2023-03-05T06:44:43;4.43;;;2.85;;
14738;SDS011;7461;52.440;13.540;2023-03-05T06:47:10;4.75;;;3.28;;
14738;SDS011;7461;52.440;13.540;2023-03-05T06:49:38;4.45;;;2.40;;
14738;SDS011;7461;52.440;13.540;2023-03-05T06:52:06;2.78;;;1.63;;
14738;SDS011;7461;52.440;13.540;2023-03-05T06:54:34;8.32;;;2.30;;
14738;SDS011;7461;52.440;13.540;2023-03-05T06:57:03;5.38;;;3.28;;
14738;SDS011;7461;52.440;13.540;2023-03-05T06:59:30;6.43;;;2.30;;
14738;SDS011;7461;52.440;13.540;2023-03-05T07:01:57;5.30;;;2.50;;
14738;SDS011;7461;52.440;13.540;2023-03-05T07:04:25;5.35;;;2.22;;
14738;SDS011;7461;52.440;13.540;2023-03-05T07:06:52;6.47;;;3.63;;
14738;SDS011;7461;52.440;13.540;2023-03-05T07:09:19;2.33;;;2.03;;
14738;SDS011;7461;52.440;13.540;2023-03-05T07:11:47;2.40;;;1.55;;
14738;SDS011;7461;52.440;13.540;2023-03-05T07:14:15;4.32;;;1.75;;
14738;SDS011;7461;52.440;13.540;2023-03-05T07:16:43;2.65;;;1.60;;
14738;SDS011;7461;52.440;13.540;2023-03-05T07:19:10;5.13;;;2.45;;
14738;SDS011;7461;52.440;13.540;2023-03-05T07:21:37;2.45;;;2.00;;
14738;SDS011;7461;52.440;13.540;2023-03-05T07:24:05;3.38;;;2.00;;
14738;SDS011;7461;52.440;13.540;2023-03-05T07:26:32;5.85;;;2.58;;
14738;SDS011;7461;52.440;13.540;2023-03-05T07:29:00;2.55;;;2.03;;
14738;SDS011;7461;52.440;13.540;2023-03-05T07:31:29;3.47;;;2.42;;
14738;SDS011;7461;52.440;13.540;2023-03-05T07:33:57;6.82;;;2.35;;
14738;SDS011;7461;52.440;13.540;2023-03-05T07:36:25;5.85;;;2.17;;
14738;SDS011;7461;52.440;13.540;2023-03-05T07:38:52;5.13;;;2.08;;
14738;SDS011;7461;52.440;13.540;2023-03-05T07:41:19;2.15;;;1.85;;
14738;SDS011;7461;52.440;13.540;2023-03-05T07:43:47;3.85;;;2.00;;
14738;SDS011;7461;52.440;13.540;2023-03-05T07:46:17;1.88;;;1.75;;
14738;SDS011;7461;52.440;13.540;2023-03-05T07:48:46;5.13;;;2.40;;
14738;SDS011;7461;52.440;13.540;2023-03-05T07:51:13;8.48;;;2.40;;
14738;SDS011;7461;52.440;13.540;2023-03-05T07:53:41;3.80;;;2.17;;
14738;SDS011;7461;52.440;13.540;2023-03-05T07:56:08;8.65;;;2.30;;
14738;SDS011;7461;52.440;13.540;2023-03-05T07:58:35;4.15;;;1.30;;
14738;SDS011;7461;52.440;13.540;2023-03-05T08:01:03;3.38;;;2.20;;
14738;SDS011;7461;52.440;13.540;2023-03-05T08:03:37;6.60;;;1.65;;
14738;SDS011;7461;52.440;13.540;2023-03-05T08:06:06;5.13;;;2.28;;
14738;SDS011;7461;52.440;13.540;2023-03-05T08:08:33;5.50;;;2.22;;
14738;SDS011;7461;52.440;13.540;2023-03-05T08:11:02;4.05;;;1.83;;
14738;SDS011;7461;52.440;13.540;2023-03-05T08:13:29;7.80;;;2.40;;
14738;SDS011;7461;52.440;13.540;2023-03-05T08:15:57;3.17;;;1.65;;
14738;SDS011;7461;52.440;13.540;2023-03-05T08:18:24;5.78;;;1.95;;
14738;SDS011;7461;52.440;13.540;2023-03-05T08:20:51;6.65;;;2.53;;
14738;SDS011;7461;52.440;13.540;2023-03-05T08:23:20;8.88;;;2.47;;
14738;SDS011;7461;52.440;13.540;2023-03-05T08:25:47;5.82;;;1.95;;
14738;SDS011;7461;52.440;13.540;2023-03-05T08:28:14;4.13;;;2.38;;
14738;SDS011;7461;52.440;13.540;2023-03-05T08:30:43;5.55;;;1.63;;
14738;SDS011;7461;52.440;13.540;2023-03-05T08:33:11;2.50;;;2.20;;
14738;SDS011;7461;52.440;13.540;2023-03-05T08:35:38;5.43;;;2.38;;
14738;SDS011;7461;52.440;13.540;2023-03-05T08:38:06;2.58;;;1.42;;
14738;SDS011;7461;52.440;13.540;2023-03-05T08:40:34;6.70;;;2.63;;
14738;SDS011;7461;52.440;13.540;2023-03-05T08:43:02;3.55;;;1.70;;
14738;SDS011;7461;52.440;13.540;2023-03-05T08:45:31;4.63;;;2.53;;
14738;SDS011;7461;52.440;13.540;2023-03-05T08:47:58;5.80;;;2.78;;
14738;SDS011;7461;52.440;13.540;2023-03-05T08:50:25;3.05;;;2.15;;
14738;SDS011;7461;52.440;13.540;2023-03-05T08:52:53;5.38;;;2.33;;
14738;SDS011;7461;52.440;13.540;2023-03-05T08:55:21;5.03;;;2.25;;
14738;SDS011;7461;52.440;13.540;2023-03-05T08:57:49;3.55;;;1.63;;
14738;SDS011;7461;52.440;13.540;2023-03-05T09:00:17;2.42;;;1.88;;
14738;SDS011;7461;52.440;13.540;2023-03-05T09:02:44;6.53;;;2.55;;
14738;SDS011;7461;52.440;13.540;2023-03-05T09:05:12;4.30;;;2.67;;
14738;SDS011;7461;52.440;13.540;2023-03-05T09:07:39;4.57;;;2.92;;
14738;SDS011;7461;52.440;13.540;2023-03-05T09:10:07;1.88;;;1.45;;
14738;SDS011;7461;52.440;13.540;2023-03-05T09:12:36;6.88;;;2.03;;
14738;SDS011;7461;52.440;13.540;2023-03-05T09:15:06;5.35;;;2.83;;
14738;SDS011;7461;52.440;13.540;2023-03-05T09:17:33;2.88;;;1.80;;
14738;SDS011;7461;52.440;13.540;2023-03-05T09:20:01;8.30;;;2.00;;
14738;SDS011;7461;52.440;13.540;2023-03-05T09:22:28;2.72;;;1.55;;
14738;SDS011;7461;52.440;13.540;2023-03-05T09:24:55;7.28;;;2.72;;
14738;SDS011;7461;52.440;13.540;2023-03-05T09:27:23;3.25;;;2.40;;
14738;SDS011;7461;52.440;13.540;2023-03-05T09:29:50;3.03;;;1.48;;
14738;SDS011;7461;52.440;13.540;2023-03-05T09:32:19;2.85;;;1.17;;
14738;SDS011;7461;52.440;13.540;2023-03-05T09:34:46;2.45;;;1.60;;
14738;SDS011;7461;52.440;13.540;2023-03-05T09:37:13;4.70;;;2.35;;
14738;SDS011;7461;52.440;13.540;2023-03-05T09:39:41;1.95;;;1.42;;
14738;SDS011;7461;52.440;13.540;2023-03-05T09:42:22;7.70;;;2.75;;
14738;SDS011;7461;52.440;13.540;2023-03-05T09:44:56;6.72;;;4.45;;
14738;SDS011;7461;52.440;13.540;2023-03-05T09:47:33;4.97;;;2.80;;
14738;SDS011;7461;52.440;13.540;2023-03-05T09:50:09;5.35;;;3.47;;
14738;SDS011;7461;52.440;13.540;2023-03-05T09:52:40;4.82;;;2.50;;
14738;SDS011;7461;52.440;13.540;2023-03-05T09:55:11;5.57;;;2.75;;
14738;SDS011;7461;52.440;13.540;2023-03-05T09:57:40;2.70;;;1.75;;
14738;SDS011;7461;52.440;13.540;2023-03-05T10:00:12;3.63;;;2.17;;
14738;SDS011;7461;52.440;13.540;2023-03-05T10:02:48;6.15;;;2.53;;
14738;SDS011;7461;52.440;13.540;2023-03-05T10:05:18;5.78;;;1.90;;
14738;SDS011;7461;52.440;13.540;2023-03-05T10:07:50;5.47;;;2.17;;
14738;SDS011;7461;52.440;13.540;2023-03-05T10:10:19;5.30;;;2.17;;
14738;SDS011;7461;52.440;13.540;2023-03-05T10:12:49;2.85;;;1.50;;
14738;SDS011;7461;52.440;13.540;2023-03-05T10:15:20;2.75;;;1.52;;
14738;SDS011;7461;52.440;13.540;2023-03-05T10:17:55;4.38;;;2.00;;
14738;SDS011;7461;52.440;13.540;2023-03-05T10:20:34;3.13;;;1.70;;
14738;SDS011;7461;52.440;13.540;2023-03-05T10:23:17;4.25;;;2.25;;
14738;SDS011;7461;52.440;13.540;2023-03-05T10:25:53;6.13;;;2.30;;
14738;SDS011;7461;52.440;13.540;2023-03-05T10:28:25;4.22;;;2.22;;
14738;SDS011;7461;52.440;13.540;2023-03-05T10:31:02;3.00;;;2.10;;
14738;SDS011;7461;52.440;13.540;2023-03-05T10:33:38;2.00;;;1.77;;
14738;SDS011;7461;52.440;13.540;2023-03-05T10:36:15;3.65;;;1.90;;
14738;SDS011;7461;52.440;13.540;2023-03-05T10:39:07;7.78;;;2.03;;
14738;SDS011;7461;52.440;13.540;2023-03-05T10:41:39;3.15;;;2.85;;
14738;SDS011;7461;52.440;13.540;2023-03-05T10:44:10;2.67;;;2.35;;
14738;SDS011;7461;52.440;13.540;2023-03-05T10:46:40;4.07;;;1.55;;
14738;SDS011;7461;52.440;13.540;2023-03-05T10:49:13;1.80;;;1.70;;
14738;SDS011;7461;52.440;13.540;2023-03-05T10:51:43;6.22;;;2.90;;
14738;SDS011;7461;52.440;13.540;2023-03-05T10:54:14;5.63;;;4.18;;
14738;SDS011;7461;52.440;13.540;2023-03-05T10:56:44;4.88;;;3.70;;
14738;SDS011;7461;52.440;13.540;2023-03-05T10:59:11;6.97;;;2.35;;
14738;SDS011;7461;52.440;13.540;2023-03-05T11:01:38;4.95;;;2.58;;
14738;SDS011;7461;52.440;13.540;2023-03-05T11:04:06;3.70;;;1.98;;
14738;SDS011;7461;52.440;13.540;2023-03-05T11:06:36;4.40;;;3.20;;
14738;SDS011;7461;52.440;13.540;2023-03-05T11:09:18;3.75;;;3.10;;
14738;SDS011;7461;52.440;13.540;2023-03-05T11:12:00;2.22;;;1.70;;
14738;SDS011;7461;52.440;13.540;2023-03-05T11:14:29;3.97;;;1.90;;
14738;SDS011;7461;52.440;13.540;2023-03-05T11:16:57;4.43;;;1.95;;
14738;SDS011;7461;52.440;13.540;2023-03-05T11:19:25;2.95;;;2.40;;
14738;SDS011;7461;52.440;13.540;2023-03-05T11:22:07;3.85;;;1.98;;
14738;SDS011;7461;52.440;13.540;2023-03-05T11:24:39;2.75;;;1.95;;
14738;SDS011;7461;52.440;13.540;2023-03-05T11:27:20;2.72;;;1.60;;
14738;SDS011;7461;52.440;13.540;2023-03-05T11:29:48;5.28;;;2.40;;
14738;SDS011;7461;52.440;13.540;2023-03-05T11:32:18;8.27;;;2.97;;
14738;SDS011;7461;52.440;13.540;2023-03-05T11:34:46;3.08;;;2.83;;
14738;SDS011;7461;52.440;13.540;2023-03-05T11:37:21;6.38;;;2.70;;
14738;SDS011;7461;52.440;13.540;2023-03-05T11:39:49;5.40;;;3.15;;
14738;SDS011;7461;52.440;13.540;2023-03-05T11:42:23;6.30;;;3.40;;
14738;SDS011;7461;52.440;13.540;2023-03-05T11:44:51;4.20;;;2.90;;
14738;SDS011;7461;52.440;13.540;2023-03-05T11:47:22;5.40;;;2.42;;
14738;SDS011;7461;52.440;13.540;2023-03-05T11:49:53;9.38;;;3.17;;
14738;SDS011;7461;52.440;13.540;2023-03-05T11:52:23;3.72;;;2.67;;
14738;SDS011;7461;52.440;13.540;2023-03-05T11:54:53;4.68;;;2.72;;
14738;SDS011;7461;52.440;13.540;2023-03-05T11:57:22;5.47;;;2.92;;
14738;SDS011;7461;52.440;13.540;2023-03-05T11:59:50;2.58;;;2.38;;
14738;SDS011;7461;52.440;13.540;2023-03-05T12:02:19;3.58;;;2.80;;
14738;SDS011;7461;52.440;13.540;2023-03-05T12:04:46;4.60;;;2.67;;
14738;SDS011;7461;52.440;13.540;2023-03-05T12:07:15;3.15;;;2.65;;
14738;SDS011;7461;52.440;13.540;2023-03-05T12:09:46;3.38;;;3.08;;
14738;SDS011;7461;52.440;13.540;2023-03-05T12:12:17;2.22;;;2.03;;
14738;SDS011;7461;52.440;13.540;2023-03-05T12:14:51;5.15;;;2.15;;
14738;SDS011;7461;52.440;13.540;2023-03-05T12:17:23;3.53;;;2.80;;
14738;SDS011;7461;52.440;13.540;2023-03-05T12:19:52;2.60;;;2.05;;
14738;SDS011;7461;52.440;13.540;2023-03-05T12:22:22;3.00;;;1.95;;
14738;SDS011;7461;52.440;13.540;2023-03-05T12:24:51;8.77;;;3.88;;
14738;SDS011;7461;52.440;13.540;2023-03-05T12:27:31;3.20;;;2.83;;
14738;SDS011;7461;52.440;13.540;2023-03-05T12:29:59;3.72;;;2.65;;
14738;SDS011;7461;52.440;13.540;2023-03-05T12:35:34;4.50;;;2.88;;
14738;SDS011;7461;52.440;13.540;2023-03-05T12:38:03;2.97;;;2.67;;
14738;SDS011;7461;52.440;13.540;2023-03-05T12:40:32;2.63;;;2.42;;
14738;SDS011;7461;52.440;13.540;2023-03-05T12:43:00;5.00;;;2.67;;
14738;SDS011;7461;52.440;13.540;2023-03-05T12:45:30;5.28;;;2.88;;
14738;SDS011;7461;52.440;13.540;2023-03-05T12:50:46;5.88;;;4.32;;
14738;SDS011;7461;52.440;13.540;2023-03-05T12:53:17;4.70;;;2.78;;
14738;SDS011;7461;52.440;13.540;2023-03-05T12:55:50;2.95;;;2.60;;
14738;SDS011;7461;52.440;13.540;2023-03-05T12:58:23;3.22;;;2.45;;
14738;SDS011;7461;52.440;13.540;2023-03-05T13:00:52;1.80;;;1.67;;
14738;SDS011;7461;52.440;13.540;2023-03-05T13:03:22;3.55;;;2.30;;
14738;SDS011;7461;52.440;13.540;2023-03-05T13:05:50;3.33;;;2.67;;
14738;SDS011;7461;52.440;13.540;2023-03-05T13:08:19;3.42;;;2.30;;
14738;SDS011;7461;52.440;13.540;2023-03-05T13:10:52;4.95;;;2.15;;
14738;SDS011;7461;52.440;13.540;2023-03-05T13:13:20;3.58;;;2.30;;
14738;SDS011;7461;52.440;13.540;2023-03-05T13:15:50;2.38;;;2.10;;
14738;SDS011;7461;52.440;13.540;2023-03-05T13:18:18;5.70;;;3.08;;
14738;SDS011;7461;52.440;13.540;2023-03-05T13:20:45;2.45;;;1.73;;
14738;SDS011;7461;52.440;13.540;2023-03-05T13:23:17;3.88;;;2.15;;
14738;SDS011;7461;52.440;13.540;2023-03-05T13:25:56;5.88;;;3.17;;
14738;SDS011;7461;52.440;13.540;2023-03-05T13:28:24;4.10;;;2.50;;
14738;SDS011;7461;52.440;13.540;2023-03-05T13:30:52;3.03;;;2.35;;
14738;SDS011;7461;52.440;13.540;2023-03-05T13:33:21;5.20;;;3.15;;
14738;SDS011;7461;52.440;13.540;2023-03-05T13:35:49;3.72;;;2.92;;
14738;SDS011;7461;52.440;13.540;2023-03-05T13:38:23;2.88;;;2.25;;
14738;SDS011;7461;52.440;13.540;2023-03-05T13:41:04;4.38;;;2.85;;
14738;SDS011;7461;52.440;13.540;2023-03-05T13:43:32;2.60;;;2.40;;
14738;SDS011;7461;52.440;13.540;2023-03-05T13:45:59;5.10;;;4.60;;
14738;SDS011;7461;52.440;13.540;2023-03-05T13:48:27;4.38;;;3.88;;
14738;SDS011;7461;52.440;13.540;2023-03-05T13:50:55;11.85;;;5.78;;
14738;SDS011;7461;52.440;13.540;2023-03-05T13:53:23;4.68;;;2.92;;
14738;SDS011;7461;52.440;13.540;2023-03-05T13:55:51;3.05;;;2.42;;
14738;SDS011;7461;52.440;13.540;2023-03-05T14:01:09;3.33;;;2.78;;
14738;SDS011;7461;52.440;13.540;2023-03-05T14:03:38;4.75;;;2.70;;
14738;SDS011;7461;52.440;13.540;2023-03-05T14:06:07;3.35;;;2.33;;
14738;SDS011;7461;52.440;13.540;2023-03-05T14:08:35;4.00;;;2.47;;
14738;SDS011;7461;52.440;13.540;2023-03-05T14:11:10;4.05;;;2.53;;
14738;SDS011;7461;52.440;13.540;2023-03-05T14:13:38;4.38;;;3.15;;
14738;SDS011;7461;52.440;13.540;2023-03-05T14:16:07;2.92;;;2.55;;
14738;SDS011;7461;52.440;13.540;2023-03-05T14:18:35;2.08;;;1.95;;
14738;SDS011;7461;52.440;13.540;2023-03-05T14:21:04;7.72;;;3.55;;
14738;SDS011;7461;52.440;13.540;2023-03-05T14:23:39;4.47;;;2.60;;
14738;SDS011;7461;52.440;13.540;2023-03-05T14:26:12;3.67;;;2.30;;
14738;SDS011;7461;52.440;13.540;2023-03-05T14:28:48;4.13;;;2.47;;
14738;SDS011;7461;52.440;13.540;2023-03-05T14:31:17;4.22;;;2.80;;
14738;SDS011;7461;52.440;13.540;2023-03-05T14:33:45;4.57;;;2.25;;
14738;SDS011;7461;52.440;13.540;2023-03-05T14:36:12;5.13;;;2.10;;
14738;SDS011;7461;52.440;13.540;2023-03-05T14:38:40;2.53;;;2.20;;
14738;SDS011;7461;52.440;13.540;2023-03-05T14:41:19;5.28;;;3.10;;
14738;SDS011;7461;52.440;13.540;2023-03-05T14:43:46;5.00;;;3.13;;
14738;SDS011;7461;52.440;13.540;2023-03-05T14:46:14;5.10;;;2.75;;
14738;SDS011;7461;52.440;13.540;2023-03-05T14:48:42;1.88;;;1.67;;
14738;SDS011;7461;52.440;13.540;2023-03-05T14:51:10;5.45;;;1.50;;
14738;SDS011;7461;52.440;13.540;2023-03-05T14:53:38;3.55;;;1.63;;
14738;SDS011;7461;52.440;13.540;2023-03-05T14:56:08;5.85;;;2.28;;
14738;SDS011;7461;52.440;13.540;2023-03-05T14:58:41;3.80;;;2.03;;
14738;SDS011;7461;52.440;13.540;2023-03-05T15:01:09;3.45;;;1.38;;
14738;SDS011;7461;52.440;13.540;2023-03-05T15:03:36;2.53;;;1.70;;
14738;SDS011;7461;52.440;13.540;2023-03-05T15:06:06;2.05;;;1.20;;